createdAt,value
2023-02-03T00:00:50.332Z,3.53
2023-02-03T00:03:52.842Z,1.33
2023-02-03T00:06:55.512Z,1.33
2023-02-03T00:09:58.159Z,0.68
2023-02-03T00:13:01.830Z,2.90
2023-02-03T00:16:06.800Z,1.65
2023-02-03T00:19:11.367Z,0.52
2023-02-03T00:22:13.910Z,0.85
2023-02-03T00:25:16.981Z,0.85
2023-02-03T00:28:19.516Z,4.00
2023-02-03T00:31:25.208Z,0.20
2023-02-03T00:34:31.539Z,0.40
2023-02-03T00:37:34.079Z,1.23
2023-02-03T00:40:36.852Z,1.20
2023-02-03T00:43:39.408Z,3.42
2023-02-03T00:46:43.723Z,0.95
2023-02-03T00:49:46.297Z,0.63
2023-02-03T00:52:48.983Z,0.50
2023-02-03T00:55:52.264Z,2.50
2023-02-03T00:58:55.454Z,2.17
2023-02-03T01:01:58.174Z,1.70
2023-02-03T01:05:01.735Z,0.40
2023-02-03T01:08:04.563Z,1.83
2023-02-03T01:11:09.883Z,0.65
2023-02-03T01:14:12.420Z,0.63
2023-02-03T01:17:14.921Z,1.95
2023-02-03T01:20:17.697Z,1.65
2023-02-03T01:23:20.148Z,5.68
2023-02-03T01:26:24.679Z,1.10
2023-02-03T01:29:27.200Z,1.77
2023-02-03T01:32:33.376Z,2.25
2023-02-03T01:35:36.720Z,2.92
2023-02-03T01:38:41.212Z,1.35
2023-02-03T01:41:43.830Z,4.13
2023-02-03T01:44:53.323Z,1.83
2023-02-03T01:47:58.705Z,1.48
2023-02-03T01:51:03.026Z,1.40
2023-02-03T01:54:08.042Z,1.25
2023-02-03T01:57:31.969Z,1.23
2023-02-03T02:00:34.683Z,7.43
2023-02-03T02:03:43.090Z,3.65
2023-02-03T02:06:48.312Z,3.08
2023-02-03T02:09:52.566Z,1.83
2023-02-03T02:12:59.382Z,1.95
2023-02-03T02:16:11.004Z,2.53
2023-02-03T02:19:33.100Z,8.48
2023-02-03T02:23:00.943Z,11.10
2023-02-03T02:26:49.486Z,5.72
2023-02-03T02:30:05.816Z,7.00
2023-02-03T02:33:19.670Z,2.08
2023-02-03T02:36:58.953Z,8.90
2023-02-03T02:40:33.005Z,2.35
2023-02-03T02:43:47.180Z,1.73
2023-02-03T02:46:54.052Z,3.28
2023-02-03T02:50:12.583Z,1.60
2023-02-03T02:53:18.208Z,0.82
2023-02-03T02:56:22.317Z,2.70
2023-02-03T02:59:28.197Z,4.85
2023-02-03T03:02:35.408Z,3.20
2023-02-03T03:05:41.690Z,1.00
2023-02-03T03:08:59.189Z,1.40
2023-02-03T03:12:13.746Z,1.73
2023-02-03T03:15:25.472Z,1.45
2023-02-03T03:18:37.110Z,3.38
2023-02-03T03:21:45.776Z,0.95
2023-02-03T03:24:53.054Z,0.47
2023-02-03T03:31:06.000Z,1.60
2023-02-03T03:34:10.474Z,1.63
2023-02-03T03:37:21.433Z,1.83
2023-02-03T03:40:43.576Z,1.23
2023-02-03T03:43:49.554Z,4.60
2023-02-03T03:47:05.734Z,3.08
2023-02-03T03:50:15.411Z,1.70
2023-02-03T03:53:24.953Z,0.68
2023-02-03T03:56:38.048Z,0.65
2023-02-03T03:59:43.327Z,2.65
2023-02-03T04:02:52.147Z,1.48
2023-02-03T04:05:56.348Z,1.30
2023-02-03T04:09:07.228Z,1.48
2023-02-03T04:12:25.845Z,0.85
2023-02-03T04:15:32.831Z,0.93
2023-02-03T04:18:36.400Z,0.52
2023-02-03T04:21:39.921Z,1.80
2023-02-03T04:24:44.093Z,0.98
2023-02-03T04:27:47.714Z,4.30
2023-02-03T04:30:51.408Z,1.90
2023-02-03T04:33:58.443Z,0.93
2023-02-03T04:37:01.757Z,1.30
2023-02-03T04:40:06.433Z,0.50
2023-02-03T04:43:10.299Z,1.45
2023-02-03T04:46:15.180Z,0.47
2023-02-03T04:49:18.792Z,1.77
2023-02-03T04:52:23.903Z,1.35
2023-02-03T04:55:32.885Z,2.40
2023-02-03T04:58:37.257Z,6.40
2023-02-03T05:01:41.773Z,1.02
2023-02-03T05:04:45.048Z,1.23
2023-02-03T05:07:48.875Z,2.83
2023-02-03T05:10:52.491Z,5.15
2023-02-03T05:13:59.530Z,1.88
2023-02-03T05:17:04.764Z,1.25
2023-02-03T05:20:09.399Z,0.60
2023-02-03T05:23:14.935Z,1.42
2023-02-03T05:26:18.343Z,1.33
2023-02-03T05:29:23.178Z,0.90
2023-02-03T05:32:28.796Z,1.98
2023-02-03T05:35:32.612Z,3.05
2023-02-03T05:38:40.598Z,1.52
2023-02-03T05:41:53.178Z,1.30
2023-02-03T05:44:59.503Z,1.75
2023-02-03T05:48:06.227Z,2.05
2023-02-03T05:51:10.626Z,3.22
2023-02-03T05:57:26.148Z,3.35
2023-02-03T06:00:35.523Z,17.63
2023-02-03T06:03:42.006Z,2.80
2023-02-03T06:06:50.710Z,4.28
2023-02-03T06:09:54.674Z,19.63
2023-02-03T06:12:59.228Z,10.23
2023-02-03T06:16:07.325Z,9.02
2023-02-03T06:19:16.301Z,7.90
2023-02-03T06:22:20.917Z,10.48
2023-02-03T06:25:37.126Z,11.02
2023-02-03T06:28:44.183Z,14.20
2023-02-03T06:31:50.371Z,10.65
2023-02-03T06:34:55.871Z,33.13
2023-02-03T06:38:00.389Z,21.63
2023-02-03T06:41:04.131Z,25.08
2023-02-03T06:44:08.584Z,15.50
2023-02-03T06:47:12.358Z,19.42
2023-02-03T06:50:16.909Z,21.40
2023-02-03T06:53:20.903Z,25.90
2023-02-03T06:56:29.064Z,5.50
2023-02-03T06:59:36.494Z,11.30
2023-02-03T07:02:42.053Z,7.82
2023-02-03T07:05:45.579Z,12.50
2023-02-03T07:08:53.421Z,7.45
2023-02-03T07:11:58.567Z,4.82
2023-02-03T07:15:08.220Z,4.22
2023-02-03T07:18:11.889Z,7.82
2023-02-03T07:21:19.855Z,6.97
2023-02-03T07:24:26.806Z,3.92
2023-02-03T07:27:34.471Z,9.68
2023-02-03T07:30:38.084Z,7.72
2023-02-03T07:33:45.768Z,6.15
2023-02-03T07:37:00.312Z,3.08
2023-02-03T07:40:03.959Z,3.90
2023-02-03T07:43:13.394Z,5.30
2023-02-03T07:46:24.876Z,4.97
2023-02-03T07:49:29.876Z,4.90
2023-02-03T07:52:37.266Z,4.97
2023-02-03T07:55:41.600Z,2.67
2023-02-03T07:58:48.647Z,5.15
2023-02-03T08:01:57.103Z,1.95
2023-02-03T08:05:06.264Z,3.22
2023-02-03T08:08:17.263Z,3.53
2023-02-03T08:11:21.007Z,2.97
2023-02-03T08:14:25.383Z,4.65
2023-02-03T08:17:29.965Z,3.28
2023-02-03T08:20:33.654Z,3.22
2023-02-03T08:23:39.642Z,4.45
2023-02-03T08:26:48.808Z,3.40
2023-02-03T08:29:55.666Z,5.72
2023-02-03T08:33:06.592Z,8.70
2023-02-03T08:39:36.107Z,3.83
2023-02-03T08:42:45.650Z,4.13
2023-02-03T08:45:52.667Z,5.30
2023-02-03T08:49:01.540Z,2.90
2023-02-03T08:52:05.070Z,5.07
2023-02-03T08:55:18.950Z,4.30
2023-02-03T08:58:25.512Z,3.63
2023-02-03T09:01:32.083Z,2.93
2023-02-03T09:04:41.144Z,2.97
2023-02-03T09:07:45.459Z,2.07
2023-02-03T09:10:52.729Z,2.55
2023-02-03T09:14:00.937Z,2.92
2023-02-03T09:17:11.521Z,2.67
2023-02-03T09:20:16.467Z,4.35
2023-02-03T09:23:20.013Z,2.53
2023-02-03T09:26:23.572Z,6.75
2023-02-03T09:29:30.158Z,6.40
2023-02-03T09:32:36.404Z,4.22
2023-02-03T09:35:41.039Z,4.23
2023-02-03T09:38:48.900Z,4.30
2023-02-03T09:42:42.439Z,6.13
2023-02-03T09:45:49.712Z,6.57
2023-02-03T09:49:10.580Z,7.43
2023-02-03T09:52:45.791Z,4.57
2023-02-03T09:55:55.299Z,7.40
2023-02-03T09:59:13.951Z,6.85
2023-02-03T10:06:06.114Z,4.78
2023-02-03T10:09:34.297Z,7.53
2023-02-03T10:16:06.046Z,4.70
2023-02-03T10:19:18.552Z,4.97
2023-02-03T10:22:30.960Z,6.07
2023-02-03T10:25:57.524Z,6.10
2023-02-03T10:29:22.356Z,4.22
2023-02-03T10:32:32.302Z,3.35
2023-02-03T10:36:06.108Z,5.78
2023-02-03T10:39:20.947Z,6.03
2023-02-03T10:42:25.350Z,5.15
2023-02-03T10:45:32.576Z,5.15
2023-02-03T10:48:37.888Z,5.03
2023-02-03T10:51:54.756Z,4.57
2023-02-03T10:54:59.948Z,9.77
2023-02-03T10:58:25.693Z,4.50
2023-02-03T11:01:42.420Z,4.72
2023-02-03T11:04:45.763Z,4.50
2023-02-03T11:07:49.467Z,4.90
2023-02-03T11:11:03.263Z,2.42
2023-02-03T11:14:06.909Z,6.70
2023-02-03T11:17:20.420Z,3.63
2023-02-03T11:20:29.474Z,3.53
2023-02-03T11:23:33.698Z,3.83
2023-02-03T11:26:42.532Z,4.13
2023-02-03T11:29:50.074Z,5.63
2023-02-03T11:32:56.128Z,7.18
2023-02-03T11:36:00.694Z,5.13
2023-02-03T11:39:24.284Z,6.80
2023-02-03T11:42:32.119Z,3.97
2023-02-03T11:45:49.389Z,7.72
2023-02-03T11:49:35.811Z,6.38
2023-02-03T11:53:02.520Z,7.47
2023-02-03T11:56:27.782Z,3.53
2023-02-03T11:59:53.694Z,6.10
2023-02-03T12:03:13.271Z,4.43
2023-02-03T12:06:25.286Z,2.13
2023-02-03T12:09:55.441Z,2.83
2023-02-03T12:13:08.524Z,3.20
2023-02-03T12:16:51.688Z,4.55
2023-02-03T12:20:18.974Z,4.90
2023-02-03T12:23:23.659Z,5.23
2023-02-03T12:26:35.420Z,11.55
2023-02-03T12:29:45.196Z,5.97
2023-02-03T12:33:18.833Z,12.75
2023-02-03T12:36:29.340Z,3.30
2023-02-03T12:39:40.310Z,3.65
2023-02-03T12:43:13.023Z,3.78
2023-02-03T12:46:41.277Z,5.63
2023-02-03T12:49:52.857Z,11.02
2023-02-03T12:53:01.188Z,6.65
2023-02-03T12:56:18.941Z,9.20
2023-02-03T13:02:36.825Z,7.85
2023-02-03T13:06:12.754Z,5.18
2023-02-03T13:09:41.419Z,4.10
2023-02-03T13:12:57.317Z,2.42
2023-02-03T13:16:01.336Z,2.35
2023-02-03T13:22:28.262Z,2.65
2023-02-03T13:25:46.396Z,3.55
2023-02-03T13:29:01.909Z,6.47
2023-02-03T13:32:27.502Z,9.93
2023-02-03T13:35:45.886Z,4.50
2023-02-03T13:39:22.856Z,6.82
2023-02-03T13:42:27.858Z,9.20
2023-02-03T13:45:41.621Z,12.50
2023-02-03T13:48:45.868Z,8.48
2023-02-03T13:51:50.803Z,8.30
2023-02-03T13:54:53.925Z,12.68
2023-02-03T13:57:57.376Z,10.35
2023-02-03T14:01:02.693Z,5.15
2023-02-03T14:04:09.447Z,3.10
2023-02-03T14:07:38.668Z,3.97
2023-02-03T14:10:45.629Z,6.68
2023-02-03T14:13:52.747Z,10.85
2023-02-03T14:16:56.531Z,12.40
2023-02-03T14:20:00.389Z,18.50
2023-02-03T14:23:09.064Z,10.48
2023-02-03T14:26:20.284Z,17.02
2023-02-03T14:29:32.878Z,16.02
2023-02-03T14:33:00.760Z,14.15
2023-02-03T14:36:26.720Z,11.07
2023-02-03T14:39:58.583Z,8.98
2023-02-03T14:43:44.554Z,13.85
2023-02-03T14:47:02.530Z,13.23
2023-02-03T14:53:28.479Z,13.95
2023-02-03T14:57:12.438Z,9.18
2023-02-03T15:00:26.843Z,13.90
2023-02-03T15:03:31.456Z,11.68
2023-02-03T15:06:48.582Z,9.13
